• Join FlightAware (Why Join?)
  • Login
  • US Flag 
05:45AM EDT


 

Airport Tracker/Info


-or-


 

Live Flight TrackerFlight Track Log ✈ EJA922 ✈ 26-Jun-2013 ✈ KPBI - KTPA

Flight Track Log - Related Links

Times and Time Zones

All times are in EDT time to prevent confusion due to time zone crossing. See the EJA922 flight status page for this flight to view local times or setup timezone preferences in your user account.

Time Position Orientation Groundspeed Altitude Reporting Facility
EDT Latitude Longitude Course Direction KTS MPH feet Rate Location/Type
11:07AM 26.8728 -80.3125 289° West 374 430 14,000  Level Miami Center
11:08AM 26.9058 -80.4183 289° West 394 453 15,400 1,800 Climbing Miami Center
11:09AM 26.9406 -80.5358 288° West 400 460 17,700 1,260 Climbing Miami Center
11:10AM 26.9831 -80.6653 290° West 406 467 18,000 120 Climbing Miami Center
11:11AM 27.0256 -80.7928 291° West 420 483 18,000  Level Miami Center
11:12AM 27.0661 -80.9200 290° West 431 496 18,000  Level Miami Center
11:13AM 27.1025 -81.0356 290° West 436 502 18,000  Level Miami Center
11:14AM 27.1444 -81.1631 290° West 441 507 18,000  Level Miami Center
11:15AM 27.1903 -81.3072 290° West 446 513 18,000  Level Miami Center
11:16AM 27.2322 -81.4394 290° West 451 519 18,000  Level Miami Center
11:17AM 27.2739 -81.5697 290° West 446 513 18,000  Level Miami Center
11:18AM 27.3153 -81.7022 289° West 446 513 18,000 -840 Level Miami Center
11:19AM 27.3550 -81.8300 289° West 446 513 16,400 -1,980 Descending Miami Center
11:20AM 27.3944 -81.9556 290° West 446 513 14,100 -2,340 Descending Miami Center
11:21AM 27.4317 -82.0767 289° West 434 499 11,800 -1,560 Descending Miami Center
11:22AM 27.4803 -82.1747 299° West 418 481 11,000 -540 Descending Miami Center
11:23AM 27.5586 -82.2603 316° Northwest 394 453 10,800 -600 Descending Miami Center
11:24AM 27.6203 -82.3381 312° West 367 422 9,900 -1,260 Descending Miami Center
11:24AM 27.6667 -82.4000 310° West 290 334 8,700 -1,620 Descending Tampa TRACON
11:25AM 27.7500 -82.4167 350° North 282 325 7,000 -1,560 Descending Tampa TRACON
11:26AM 27.8167 -82.4167 360° North 275 316 5,600 -1,020 Descending Tampa TRACON
11:27AM 27.8833 -82.4167 360° North 260 299 5,100 -240 Descending Tampa TRACON
11:28AM 27.9667 -82.4167 360° North 236 272 5,100 -480 Level Tampa TRACON
11:29AM 28.0167 -82.4167 360° North 218 251 4,100 -1,680 Descending Tampa TRACON
11:30AM 28.0833 -82.4500 336° Northwest 219 252 1,800 -1,440 Descending Tampa TRACON
11:31AM 28.0667 -82.5000 249° West 185 213 1,300 -540 Descending Tampa TRACON
11:32AM 28.0333 -82.5333 221° Southwest 142 163 800 -540 Descending Tampa TRACON
11:34AM 27.9755 -82.5332 190° South  Level Estimated
11:41AM 27.9755 -82.5332 190° South  Level Estimated
11:42AM 27.9755 -82.5332 190° South  Level Estimated
11:43AM 27.9755 -82.5332 190° South  Level Estimated